Time;durP1;ratioP1;P1;durP2;ratioP2;P2;SDS_P1;SDS_P2;PMS_P1;PMS_P2;Temp;Humidity;BMP_temperature;BMP_pressure;BME280_temperature;BME280_humidity;BME280_pressure;Samples;Min_cycle;Max_cycle;Signal;HPM_P1;HPM_P2
2022/08/21 00:02:03;;;;;;;35.85;25.98;;;19.00;54.10;;;;;;4947559;28;20094;-83
2022/08/21 00:04:30;;;;;;;37.85;25.35;;;19.00;54.30;;;;;;4947251;28;20050;-83
2022/08/21 00:06:56;;;;;;;35.92;25.38;;;18.90;54.30;;;;;;4931942;29;20046;-83
2022/08/21 00:09:22;;;;;;;37.75;24.30;;;19.00;54.60;;;;;;4932066;29;20098;-84
2022/08/21 00:11:48;;;;;;;34.63;24.65;;;18.90;54.50;;;;;;4948395;28;20043;-84
2022/08/21 00:14:15;;;;;;;36.92;24.45;;;18.90;54.60;;;;;;4931643;29;20043;-84
2022/08/21 00:16:41;;;;;;;35.30;24.45;;;18.90;54.70;;;;;;4946744;28;20663;-84
2022/08/21 00:19:08;;;;;;;36.28;26.48;;;18.90;54.70;;;;;;4947311;28;20418;-83
2022/08/21 00:21:35;;;;;;;39.10;26.67;;;18.80;54.60;;;;;;4931420;28;20557;-84
2022/08/21 00:24:02;;;;;;;38.88;26.67;;;18.80;54.60;;;;;;4947406;29;20035;-83
2022/08/21 00:26:28;;;;;;;36.42;26.17;;;18.70;54.70;;;;;;4931873;29;20102;-84
2022/08/21 00:28:54;;;;;;;40.22;26.55;;;18.80;54.80;;;;;;4915473;29;20070;-84
2022/08/21 00:31:20;;;;;;;41.13;27.08;;;18.80;54.80;;;;;;4948393;28;20474;-80
2022/08/21 00:33:46;;;;;;;36.60;26.10;;;18.80;54.80;;;;;;4948757;28;20035;-83
2022/08/21 00:36:13;;;;;;;38.15;25.58;;;18.70;54.80;;;;;;4948242;29;20573;-84
2022/08/21 00:38:39;;;;;;;39.50;27.05;;;18.70;54.90;;;;;;4931716;29;20050;-81
2022/08/21 00:41:08;;;;;;;34.83;26.27;;;18.70;54.90;;;;;;4939149;28;20035;-83
2022/08/21 00:43:36;;;;;;;42.03;26.48;;;18.70;54.90;;;;;;4915185;29;20135;-82
2022/08/21 00:46:05;;;;;;;37.80;24.02;;;18.60;55.30;;;;;;4946432;28;20043;-83
2022/08/21 00:48:31;;;;;;;39.03;24.80;;;18.60;55.10;;;;;;4948308;28;20031;-82
2022/08/21 00:51:12;;;;;;;35.90;25.45;;;18.60;54.90;;;;;;4948235;29;20422;-83
2022/08/21 00:53:42;;;;;;;39.25;25.17;;;18.60;55.00;;;;;;4946358;28;20039;-83
2022/08/21 00:56:10;;;;;;;34.95;23.98;;;18.60;55.10;;;;;;4948117;28;20035;-83
2022/08/21 00:58:38;;;;;;;36.15;25.02;;;18.50;55.20;;;;;;4948289;28;20517;-82
2022/08/21 01:01:05;;;;;;;34.33;24.17;;;18.60;55.20;;;;;;4946668;28;20042;-83
2022/08/21 01:03:32;;;;;;;37.60;25.08;;;18.50;55.20;;;;;;4930233;28;20051;-83
2022/08/21 01:05:58;;;;;;;32.53;23.90;;;18.50;55.20;;;;;;4933886;29;20070;-83
2022/08/21 01:08:24;;;;;;;36.38;24.38;;;18.50;55.30;;;;;;4930683;29;20122;-82
2022/08/21 01:10:52;;;;;;;37.80;25.35;;;18.40;55.40;;;;;;4931174;29;20051;-82
2022/08/21 01:13:25;;;;;;;38.10;24.75;;;18.40;55.50;;;;;;4949300;28;20035;-82
2022/08/21 01:15:54;;;;;;;36.53;24.92;;;18.40;55.50;;;;;;4937438;28;20043;-82
2022/08/21 01:18:21;;;;;;;35.38;25.92;;;18.30;55.60;;;;;;4954494;28;20087;-81
2022/08/21 01:21:07;;;;;;;40.42;25.63;;;18.30;55.50;;;;;;4954063;28;20110;-81
2022/08/21 01:23:35;;;;;;;33.15;24.92;;;18.40;55.70;;;;;;4953044;28;20035;-80
2022/08/21 01:26:02;;;;;;;35.53;26.33;;;18.30;55.80;;;;;;4936644;29;20043;-81
2022/08/21 01:28:33;;;;;;;36.47;25.70;;;18.30;55.80;;;;;;4953901;28;20043;-81
2022/08/21 01:31:01;;;;;;;36.97;26.15;;;18.20;55.70;;;;;;4954394;28;20735;-79
2022/08/21 01:33:27;;;;;;;41.67;26.52;;;18.20;55.80;;;;;;4954126;29;20043;-81
2022/08/21 01:35:53;;;;;;;36.47;26.88;;;18.20;55.90;;;;;;4954256;28;20529;-81
2022/08/21 01:38:19;;;;;;;43.45;28.58;;;18.20;55.70;;;;;;4954503;28;20878;-82
2022/08/21 01:40:45;;;;;;;37.55;27.88;;;18.20;55.70;;;;;;4954295;28;20473;-80
2022/08/21 01:43:11;;;;;;;42.15;27.52;;;18.20;55.70;;;;;;4953673;28;20418;-81
2022/08/21 01:45:37;;;;;;;42.42;28.48;;;18.20;55.70;;;;;;4937236;28;20034;-80
2022/08/21 01:48:03;;;;;;;46.95;29.40;;;18.20;55.70;;;;;;4954286;28;20050;-81
2022/08/21 01:50:29;;;;;;;44.55;28.13;;;18.20;55.80;;;;;;4954742;28;20071;-81
2022/08/21 01:52:55;;;;;;;37.08;27.35;;;18.10;55.90;;;;;;4936443;29;20050;-81
2022/08/21 01:55:22;;;;;;;41.38;27.27;;;18.10;56.20;;;;;;4953633;28;20031;-83
2022/08/21 01:57:48;;;;;;;38.75;28.55;;;18.10;56.30;;;;;;4921465;28;20039;-83
2022/08/21 02:00:17;;;;;;;43.22;27.60;;;18.00;56.30;;;;;;4954431;29;20038;-81
2022/08/21 02:02:43;;;;;;;46.00;29.50;;;18.00;56.40;;;;;;4952370;28;20039;-77
2022/08/21 02:05:11;;;;;;;40.33;28.65;;;18.00;56.50;;;;;;4953482;28;20035;-81
2022/08/21 02:07:39;;;;;;;40.25;29.10;;;18.00;56.50;;;;;;4936814;29;20552;-82
2022/08/21 02:10:08;;;;;;;44.22;29.95;;;18.00;56.50;;;;;;4952305;28;20114;-82
2022/08/21 02:12:35;;;;;;;41.20;30.25;;;17.90;56.60;;;;;;4935950;28;20043;-81
2022/08/21 02:15:03;;;;;;;45.75;32.50;;;18.00;56.80;;;;;;4952216;29;20031;-81
2022/08/21 02:17:44;;;;;;;48.75;33.63;;;17.90;56.50;;;;;;4953704;28;20387;-81
2022/08/21 02:20:21;;;;;;;50.25;33.67;;;18.00;56.40;;;;;;4953822;28;20039;-82
2022/08/21 02:22:47;;;;;;;50.08;35.55;;;18.00;56.30;;;;;;4953520;28;20181;-81
2022/08/21 02:25:13;;;;;;;55.70;36.58;;;18.00;56.20;;;;;;4941181;29;20039;-82
2022/08/21 02:27:41;;;;;;;52.78;35.95;;;18.00;56.10;;;;;;4933227;28;20176;-82
2022/08/21 02:30:10;;;;;;;57.70;36.22;;;18.00;56.10;;;;;;4950888;29;20085;-81
2022/08/21 02:32:36;;;;;;;51.45;36.63;;;18.00;56.00;;;;;;4950683;28;20042;-82
2022/08/21 02:35:02;;;;;;;48.05;37.60;;;18.00;55.90;;;;;;4916984;29;20065;-81
2022/08/21 02:37:28;;;;;;;59.92;39.75;;;18.10;55.80;;;;;;4949850;28;20490;-82
2022/08/21 02:39:54;;;;;;;57.75;38.17;;;18.10;55.70;;;;;;4950708;28;20075;-82
2022/08/21 02:42:21;;;;;;;56.78;38.45;;;18.10;55.70;;;;;;4949544;29;20062;-80
2022/08/21 02:44:47;;;;;;;56.88;39.63;;;18.10;55.60;;;;;;4949062;28;20130;-83
2022/08/21 02:47:14;;;;;;;62.17;40.72;;;18.20;55.60;;;;;;4948900;28;20043;-81
2022/08/21 02:49:40;;;;;;;54.40;40.88;;;18.10;55.50;;;;;;4950972;28;20053;-80
2022/08/21 02:52:06;;;;;;;61.30;42.38;;;18.20;55.40;;;;;;4950277;28;20134;-82
2022/08/21 02:54:32;;;;;;;56.85;40.95;;;18.10;55.40;;;;;;4950307;28;20027;-82
2022/08/21 02:56:58;;;;;;;58.13;41.90;;;18.10;55.50;;;;;;4950234;29;20031;-82
2022/08/21 02:59:24;;;;;;;62.35;43.47;;;18.10;55.40;;;;;;4948526;28;20039;-83
2022/08/21 03:01:50;;;;;;;59.00;43.08;;;18.10;55.30;;;;;;4933415;29;20124;-83
2022/08/21 03:04:16;;;;;;;61.20;43.47;;;18.10;55.50;;;;;;4917442;29;20072;-83
2022/08/21 03:06:42;;;;;;;65.07;44.33;;;18.10;55.50;;;;;;4932430;28;20035;-82
2022/08/21 03:09:08;;;;;;;62.88;45.25;;;18.10;55.80;;;;;;4948915;29;20518;-82
2022/08/21 03:11:35;;;;;;;62.28;45.42;;;18.10;55.70;;;;;;4917814;29;20042;-83
2022/08/21 03:14:01;;;;;;;65.63;45.55;;;18.10;55.70;;;;;;4948081;28;20050;-83
2022/08/21 03:16:27;;;;;;;61.22;45.78;;;18.10;55.50;;;;;;4933092;29;20418;-83
2022/08/21 03:18:53;;;;;;;66.53;45.95;;;18.10;55.50;;;;;;4949649;28;20039;-82
2022/08/21 03:21:19;;;;;;;70.85;48.85;;;18.10;55.60;;;;;;4948786;29;20047;-83
2022/08/21 03:23:45;;;;;;;67.40;46.95;;;18.00;55.40;;;;;;4949078;28;20031;-82
2022/08/21 03:26:11;;;;;;;67.82;47.95;;;18.10;55.60;;;;;;4949796;28;20083;-82
2022/08/21 03:28:37;;;;;;;76.78;50.20;;;18.00;55.80;;;;;;4949527;28;20035;-83
2022/08/21 03:31:04;;;;;;;67.93;48.63;;;18.10;55.80;;;;;;4948617;28;20043;-82
2022/08/21 03:33:30;;;;;;;68.88;50.70;;;18.10;55.70;;;;;;4949252;28;20043;-84
2022/08/21 03:36:05;;;;;;;67.57;49.03;;;18.10;55.80;;;;;;4950128;28;20031;-82
2022/08/21 03:38:32;;;;;;;70.90;49.70;;;18.10;55.90;;;;;;4950503;28;20035;-85
2022/08/21 03:40:59;;;;;;;72.20;51.53;;;18.10;55.60;;;;;;4948512;28;20123;-85
2022/08/21 03:43:26;;;;;;;74.68;51.67;;;18.10;55.70;;;;;;4932011;29;20049;-83
2022/08/21 03:45:52;;;;;;;75.40;51.40;;;18.10;55.90;;;;;;4932367;28;20043;-85
2022/08/21 03:48:19;;;;;;;81.65;53.67;;;18.10;55.70;;;;;;4950028;29;20118;-83
2022/08/21 03:50:47;;;;;;;77.68;50.17;;;18.10;55.90;;;;;;4949357;28;20043;-83
2022/08/21 03:53:14;;;;;;;71.15;51.25;;;18.20;55.90;;;;;;4931914;29;20071;-83
2022/08/21 03:55:40;;;;;;;72.50;51.53;;;18.20;55.70;;;;;;4949197;28;20540;-79
2022/08/21 03:58:07;;;;;;;70.47;51.67;;;18.20;55.40;;;;;;4947422;28;20043;-84
2022/08/21 04:00:33;;;;;;;73.22;51.92;;;18.30;55.50;;;;;;4948917;28;20064;-82
2022/08/21 04:03:00;;;;;;;70.85;50.42;;;18.30;55.30;;;;;;4949264;29;20027;-82
2022/08/21 04:05:29;;;;;;;74.80;52.90;;;18.30;55.20;;;;;;4932222;29;20039;-82
2022/08/21 04:08:02;;;;;;;73.95;51.63;;;18.30;55.30;;;;;;4949061;28;20130;-82
2022/08/21 04:10:30;;;;;;;75.18;52.42;;;18.40;55.20;;;;;;4947595;28;20090;-81
2022/08/21 04:12:56;;;;;;;75.65;51.40;;;18.40;56.20;;;;;;4931432;29;20529;-81
2022/08/21 04:15:24;;;;;;;74.57;51.58;;;18.40;55.40;;;;;;4947814;29;20047;-82
2022/08/21 04:17:50;;;;;;;78.28;50.55;;;18.40;55.40;;;;;;4947041;28;20134;-80
2022/08/21 04:20:17;;;;;;;74.82;53.38;;;18.50;55.20;;;;;;4948896;28;20035;-81
2022/08/21 04:22:44;;;;;;;73.68;52.85;;;18.50;55.40;;;;;;4948326;28;20134;-82
2022/08/21 04:25:11;;;;;;;70.47;51.45;;;18.50;55.00;;;;;;4948729;28;20043;-82
2022/08/21 04:27:39;;;;;;;73.50;53.25;;;18.50;55.50;;;;;;4946755;28;20437;-81
2022/08/21 04:30:07;;;;;;;66.57;49.92;;;18.60;55.30;;;;;;4948829;29;20035;-80
2022/08/21 04:32:33;;;;;;;71.90;51.78;;;18.70;55.20;;;;;;4931146;29;20040;-81
2022/08/21 04:35:08;;;;;;;73.85;53.13;;;18.70;54.90;;;;;;4946834;28;20510;-81
2022/08/21 04:37:35;;;;;;;68.70;50.55;;;18.90;54.60;;;;;;4947119;28;20036;-82
2022/08/21 04:40:02;;;;;;;73.55;52.63;;;18.90;54.50;;;;;;4948159;28;20086;-80
2022/08/21 04:42:28;;;;;;;71.03;52.85;;;19.00;54.50;;;;;;4947033;29;20035;-82
2022/08/21 04:44:56;;;;;;;73.07;51.97;;;19.00;54.30;;;;;;4946560;29;20031;-81
2022/08/21 04:47:23;;;;;;;71.57;51.97;;;19.10;54.10;;;;;;4947803;28;20093;-82
2022/08/21 04:49:50;;;;;;;68.55;51.00;;;19.20;54.10;;;;;;4947686;28;20047;-82
2022/08/21 04:52:21;;;;;;;70.15;51.55;;;19.30;54.00;;;;;;4948022;28;20059;-82
2022/08/21 04:54:48;;;;;;;72.35;50.30;;;19.30;53.30;;;;;;4915770;28;20074;-82
2022/08/21 04:57:15;;;;;;;74.97;51.08;;;19.40;53.40;;;;;;4947750;29;20491;-83
2022/08/21 04:59:47;;;;;;;73.72;50.53;;;19.50;52.90;;;;;;4931144;29;20039;-82
2022/08/21 05:02:14;;;;;;;63.58;47.88;;;19.60;52.50;;;;;;4946911;28;20263;-82
2022/08/21 05:04:51;;;;;;;66.70;50.25;;;19.70;52.50;;;;;;4947823;28;20570;-82
2022/08/21 05:07:22;;;;;;;66.13;49.08;;;19.80;52.60;;;;;;4947307;28;20498;-81
2022/08/21 05:09:48;;;;;;;67.47;48.33;;;19.90;52.20;;;;;;4930834;28;20466;-82
2022/08/21 05:12:14;;;;;;;69.07;49.05;;;20.10;51.80;;;;;;4948422;29;20400;-81
2022/08/21 05:14:42;;;;;;;70.63;47.45;;;20.10;51.30;;;;;;4946849;28;20035;-81
2022/08/21 05:17:08;;;;;;;64.97;46.60;;;20.30;50.90;;;;;;4946666;28;20071;-83
2022/08/21 05:19:34;;;;;;;62.80;46.22;;;20.50;50.80;;;;;;4946341;28;20452;-83
2022/08/21 05:22:00;;;;;;;69.43;46.67;;;20.70;50.90;;;;;;4946097;28;20047;-82
2022/08/21 05:24:27;;;;;;;70.60;48.90;;;20.80;50.50;;;;;;4947195;29;20098;-82
2022/08/21 05:26:53;;;;;;;63.30;45.28;;;21.00;50.00;;;;;;4947397;29;20047;-82
2022/08/21 05:29:20;;;;;;;61.47;47.25;;;21.10;49.50;;;;;;4947833;28;20035;-81
2022/08/21 05:31:47;;;;;;;63.40;45.42;;;21.30;49.20;;;;;;4947132;28;20058;-82
2022/08/21 05:34:17;;;;;;;62.25;45.53;;;21.40;48.70;;;;;;4948074;28;20036;-83
2022/08/21 05:36:44;;;;;;;59.35;43.40;;;21.50;48.70;;;;;;4947353;28;20035;-83
2022/08/21 05:39:10;;;;;;;61.35;44.92;;;21.70;48.60;;;;;;4931006;29;20027;-82
2022/08/21 05:41:36;;;;;;;61.80;44.20;;;21.80;47.50;;;;;;4948016;28;20502;-83
2022/08/21 05:44:02;;;;;;;58.03;42.78;;;21.90;47.50;;;;;;4947605;28;20035;-82
2022/08/21 05:46:28;;;;;;;59.75;43.22;;;22.00;47.30;;;;;;4947985;28;20043;-83
2022/08/21 05:48:54;;;;;;;61.05;43.78;;;22.20;47.40;;;;;;4947092;28;20494;-80
2022/08/21 05:51:20;;;;;;;58.28;42.03;;;22.30;46.90;;;;;;4931379;29;20197;-83
2022/08/21 05:53:46;;;;;;;60.90;42.55;;;22.50;46.50;;;;;;4930528;29;20046;-83
2022/08/21 05:56:13;;;;;;;57.38;41.38;;;22.60;46.00;;;;;;4930628;29;20028;-82
2022/08/21 05:58:39;;;;;;;53.72;41.45;;;22.70;45.70;;;;;;4945642;28;20043;-84
2022/08/21 06:01:06;;;;;;;57.60;42.50;;;22.80;46.00;;;;;;4917005;29;20039;-83
2022/08/21 06:03:39;;;;;;;54.90;39.50;;;22.90;45.20;;;;;;4949639;28;20023;-84
2022/08/21 06:06:05;;;;;;;56.70;40.72;;;23.00;45.10;;;;;;4951161;29;20038;-82
2022/08/21 06:08:31;;;;;;;54.75;39.95;;;23.20;44.90;;;;;;4949928;28;20046;-83
2022/08/21 06:11:00;;;;;;;54.05;40.10;;;23.40;44.20;;;;;;4934342;29;20050;-83
2022/08/21 06:13:26;;;;;;;50.67;38.70;;;23.40;44.50;;;;;;4949286;28;20098;-84
2022/08/21 06:16:10;;;;;;;52.45;39.95;;;23.50;44.20;;;;;;4933730;28;20110;-84
2022/08/21 06:18:38;;;;;;;51.25;37.65;;;23.60;43.40;;;;;;4950386;28;20043;-81
2022/08/21 06:21:05;;;;;;;54.60;37.67;;;23.60;43.10;;;;;;4950975;29;20158;-84
2022/08/21 06:23:32;;;;;;;49.85;38.13;;;23.60;42.80;;;;;;4950870;28;20043;-85
2022/08/21 06:25:58;;;;;;;47.83;37.20;;;23.60;42.90;;;;;;4950630;28;20059;-84
2022/08/21 06:28:24;;;;;;;56.13;38.63;;;23.60;42.70;;;;;;4949676;28;20577;-85
2022/08/21 06:30:50;;;;;;;46.97;36.47;;;23.80;42.60;;;;;;4950466;28;20058;-85
2022/08/21 06:33:16;;;;;;;47.20;36.42;;;23.90;42.70;;;;;;4949868;29;20039;-84
2022/08/21 06:35:42;;;;;;;55.38;37.03;;;24.00;43.00;;;;;;4949059;28;20043;-83
2022/08/21 06:38:08;;;;;;;52.72;35.03;;;24.20;42.60;;;;;;4949606;28;20461;-86
2022/08/21 06:40:34;;;;;;;43.00;35.33;;;24.20;41.90;;;;;;4936328;29;20058;-85
2022/08/21 06:43:13;;;;;;;48.33;37.33;;;24.30;42.10;;;;;;4949805;28;20751;-81
2022/08/21 06:45:39;;;;;;;47.90;35.08;;;24.30;42.20;;;;;;4950070;28;20042;-84
2022/08/21 06:48:06;;;;;;;47.83;36.25;;;24.40;42.10;;;;;;4949341;29;20050;-84
2022/08/21 06:50:33;;;;;;;49.15;35.60;;;24.50;42.10;;;;;;4933094;29;20039;-81
2022/08/21 06:53:08;;;;;;;46.55;35.38;;;24.50;41.70;;;;;;4949731;28;20047;-82
2022/08/21 06:55:34;;;;;;;47.03;36.30;;;24.40;41.50;;;;;;4947949;28;20035;-85
2022/08/21 06:58:00;;;;;;;48.15;34.65;;;24.50;41.30;;;;;;4932992;29;21047;-84
2022/08/21 07:00:27;;;;;;;51.40;36.75;;;24.60;41.50;;;;;;4933072;29;20043;-83
2022/08/21 07:02:52;;;;;;;49.97;36.50;;;24.60;41.20;;;;;;4949688;28;20039;-83
2022/08/21 07:05:18;;;;;;;48.67;34.08;;;24.70;40.50;;;;;;4948853;28;20036;-83
2022/08/21 07:07:45;;;;;;;47.90;32.85;;;24.70;40.40;;;;;;4932653;29;20459;-80
2022/08/21 07:10:12;;;;;;;47.03;34.08;;;24.70;40.10;;;;;;4949061;28;20050;-81
2022/08/21 07:12:38;;;;;;;42.20;33.28;;;24.80;40.60;;;;;;4948696;28;20031;-83
2022/08/21 07:15:04;;;;;;;46.45;33.60;;;24.80;40.60;;;;;;4933219;29;20063;-83
2022/08/21 07:17:30;;;;;;;45.67;32.80;;;24.80;39.30;;;;;;4948238;28;20098;-82
2022/08/21 07:19:57;;;;;;;45.42;32.67;;;24.80;39.40;;;;;;4949766;28;20035;-84
2022/08/21 07:22:23;;;;;;;45.08;32.00;;;24.80;39.90;;;;;;4947510;28;20058;-82
2022/08/21 07:24:49;;;;;;;39.22;31.15;;;24.90;39.30;;;;;;4932389;28;21282;-82
2022/08/21 07:27:15;;;;;;;42.25;32.45;;;24.90;39.30;;;;;;4917901;29;20102;-81
2022/08/21 07:29:41;;;;;;;41.47;31.23;;;24.90;39.00;;;;;;4948085;28;20533;-82
2022/08/21 07:32:07;;;;;;;47.10;33.22;;;24.90;39.80;;;;;;4948769;28;20039;-82
2022/08/21 07:34:33;;;;;;;42.92;33.45;;;25.00;39.80;;;;;;4948475;28;20095;-81
2022/08/21 07:36:59;;;;;;;43.90;32.30;;;25.00;39.70;;;;;;4948043;28;20537;-81
2022/08/21 07:39:25;;;;;;;42.08;32.70;;;25.00;39.30;;;;;;4948037;28;20043;-80
2022/08/21 07:41:51;;;;;;;42.10;32.50;;;24.90;38.50;;;;;;4949158;28;20046;-83
2022/08/21 07:44:17;;;;;;;40.53;31.17;;;24.90;38.80;;;;;;4947722;28;20039;-81
2022/08/21 07:46:43;;;;;;;44.63;32.08;;;24.90;39.20;;;;;;4948227;28;20035;-80
2022/08/21 07:49:09;;;;;;;41.05;30.77;;;25.00;38.90;;;;;;4947704;28;20069;-80
2022/08/21 07:51:35;;;;;;;42.80;31.67;;;25.00;38.20;;;;;;4916479;28;20033;-81
2022/08/21 07:54:01;;;;;;;36.90;30.48;;;24.90;38.30;;;;;;4946941;29;21832;-82
2022/08/21 07:56:30;;;;;;;41.38;31.00;;;24.90;38.00;;;;;;4947791;28;20039;-83
2022/08/21 07:58:57;;;;;;;41.60;31.00;;;24.90;38.30;;;;;;4948376;28;20059;-83
2022/08/21 08:01:23;;;;;;;39.00;29.10;;;24.90;37.70;;;;;;4949855;28;20310;-79
2022/08/21 08:03:49;;;;;;;38.38;27.88;;;24.90;37.80;;;;;;4947986;28;20059;-82
2022/08/21 08:06:18;;;;;;;40.78;29.38;;;24.90;37.50;;;;;;4915650;29;20027;-82
2022/08/21 08:08:44;;;;;;;39.10;29.50;;;24.80;37.40;;;;;;4947283;28;20039;-83
2022/08/21 08:11:14;;;;;;;43.03;31.17;;;24.90;38.10;;;;;;4931622;29;20130;-81
2022/08/21 08:13:48;;;;;;;40.25;29.23;;;24.80;38.30;;;;;;4948167;28;20185;-81
2022/08/21 08:16:15;;;;;;;36.28;27.60;;;24.80;37.80;;;;;;4947574;28;20051;-82
2022/08/21 08:18:42;;;;;;;36.17;27.17;;;24.80;38.00;;;;;;4899604;28;20189;-79
2022/08/21 08:21:09;;;;;;;43.72;28.63;;;24.70;37.20;;;;;;4947613;29;20035;-79
2022/08/21 08:23:35;;;;;;;39.67;27.85;;;24.70;37.50;;;;;;4946598;28;20118;-83
2022/08/21 08:26:02;;;;;;;38.97;24.73;;;24.70;37.50;;;;;;4931571;28;20315;-82
2022/08/21 08:28:31;;;;;;;30.60;23.17;;;24.70;37.10;;;;;;4947219;28;20514;-86
2022/08/21 08:30:58;;;;;;;30.42;23.23;;;24.70;37.10;;;;;;4915713;29;20511;-85
2022/08/21 08:33:24;;;;;;;33.72;23.38;;;24.80;37.40;;;;;;4901720;29;20039;-89
2022/08/21 08:35:51;;;;;;;32.95;21.67;;;24.80;37.20;;;;;;4949842;28;20039;-86
2022/08/21 08:38:19;;;;;;;31.00;21.52;;;24.80;37.40;;;;;;4932366;29;20050;-85
2022/08/21 08:41:07;;;;;;;35.28;22.77;;;24.90;37.60;;;;;;4947258;28;20046;-82
2022/08/21 08:43:34;;;;;;;31.33;23.38;;;24.90;37.90;;;;;;4946659;28;20498;-85
2022/08/21 08:46:05;;;;;;;29.70;21.83;;;25.00;37.50;;;;;;4947137;28;20035;-84
2022/08/21 08:48:40;;;;;;;30.98;20.55;;;25.00;37.20;;;;;;4931400;28;20035;-86
2022/08/21 08:51:21;;;;;;;27.20;21.00;;;25.00;36.00;;;;;;4931139;29;20031;-84
2022/08/21 08:53:58;;;;;;;28.05;18.45;;;25.00;36.60;;;;;;4930585;29;20522;-85
2022/08/21 08:56:30;;;;;;;30.30;19.35;;;25.00;35.50;;;;;;4945765;28;20043;-84
2022/08/21 08:59:13;;;;;;;27.58;19.63;;;25.00;35.40;;;;;;4930485;29;20043;-84
2022/08/21 09:01:39;;;;;;;28.33;19.05;;;25.00;35.00;;;;;;4947601;28;20041;-86
2022/08/21 09:04:06;;;;;;;26.20;19.67;;;25.00;35.30;;;;;;4928933;29;20031;-84
2022/08/21 09:06:53;;;;;;;30.98;20.73;;;25.00;35.20;;;;;;4931335;29;20098;-84
2022/08/21 09:09:31;;;;;;;29.13;19.88;;;25.10;35.30;;;;;;4935283;29;20046;-85
2022/08/21 09:12:01;;;;;;;32.03;21.33;;;25.10;35.70;;;;;;4946562;29;20430;-84
2022/08/21 09:14:47;;;;;;;25.42;19.75;;;25.10;35.50;;;;;;4929381;29;20052;-87
2022/08/21 09:17:39;;;;;;;28.67;20.05;;;25.10;35.30;;;;;;4948761;28;20031;-89
2022/08/21 09:20:23;;;;;;;29.80;21.10;;;25.10;35.30;;;;;;4946387;29;20039;-85
2022/08/21 09:23:07;;;;;;;28.60;20.75;;;25.20;35.60;;;;;;4931755;29;20039;-85
2022/08/21 09:25:55;;;;;;;30.70;20.13;;;25.20;35.00;;;;;;4948259;29;20035;-87
2022/08/21 09:28:21;;;;;;;30.80;19.45;;;25.10;34.60;;;;;;4945452;28;20086;-83
2022/08/21 09:30:48;;;;;;;27.27;20.33;;;25.10;35.00;;;;;;4931589;29;20147;-88
2022/08/21 09:33:15;;;;;;;26.50;19.58;;;25.10;35.00;;;;;;4916324;28;20038;-87
2022/08/21 09:35:52;;;;;;;25.98;18.50;;;25.10;35.20;;;;;;4950360;28;20035;-85
2022/08/21 09:38:31;;;;;;;26.95;17.30;;;25.20;34.10;;;;;;4919777;29;20090;-89
2022/08/21 09:41:04;;;;;;;24.02;16.67;;;25.20;33.90;;;;;;4950776;28;20054;-86
2022/08/21 09:43:32;;;;;;;22.15;15.15;;;25.20;34.30;;;;;;4933896;29;20038;-85
2022/08/21 09:46:10;;;;;;;23.23;15.63;;;25.20;34.40;;;;;;4933810;29;20031;-86
2022/08/21 09:48:48;;;;;;;25.05;16.67;;;25.20;33.80;;;;;;4950092;28;20035;-86
2022/08/21 09:51:27;;;;;;;20.48;16.02;;;25.20;33.40;;;;;;4950270;29;20401;-88
2022/08/21 09:54:17;;;;;;;25.48;16.42;;;25.20;34.30;;;;;;4902527;29;20051;-88
2022/08/21 09:59:51;;;;;;;22.75;16.55;;;25.30;33.50;;;;;;4934434;29;20086;-91
2022/08/21 10:02:28;;;;;;;23.63;16.38;;;25.20;33.90;;;;;;4918139;29;20449;-90
2022/08/21 10:04:58;;;;;;;26.17;17.90;;;25.20;34.00;;;;;;4949926;28;20035;-89
2022/08/21 10:07:27;;;;;;;23.55;17.40;;;25.20;34.10;;;;;;4936773;29;20035;-88
2022/08/21 10:10:19;;;;;;;31.70;18.23;;;25.20;34.30;;;;;;4934090;28;20054;-87
2022/08/21 10:12:45;;;;;;;24.95;17.20;;;25.30;34.50;;;;;;4916279;28;20058;-86
2022/08/21 10:15:17;;;;;;;23.15;15.57;;;25.30;34.40;;;;;;4919292;29;20043;-89
2022/08/21 10:18:01;;;;;;;21.20;15.52;;;25.40;33.90;;;;;;4932827;29;20518;-84
2022/08/21 10:23:56;;;;;;;18.95;13.25;;;25.40;33.30;;;;;;4972032;28;20090;-91
2022/08/21 10:26:47;;;;;;;21.17;13.45;;;25.40;33.90;;;;;;4968717;28;20043;-85
2022/08/21 10:29:43;;;;;;;20.05;13.50;;;25.50;33.80;;;;;;4964922;28;20031;-82
2022/08/21 10:32:42;;;;;;;21.67;14.40;;;25.50;34.10;;;;;;4966356;28;20097;-79
2022/08/21 10:35:17;;;;;;;21.33;13.77;;;25.60;34.30;;;;;;4963833;28;20031;-80
2022/08/21 10:37:55;;;;;;;19.15;13.80;;;25.60;33.80;;;;;;4950885;28;20034;-82
2022/08/21 10:40:27;;;;;;;20.55;14.45;;;25.60;34.70;;;;;;4964246;28;20595;-81
2022/08/21 10:43:17;;;;;;;17.83;13.15;;;25.60;34.30;;;;;;4965930;28;20043;-80
2022/08/21 10:45:57;;;;;;;21.75;14.75;;;25.70;34.90;;;;;;4962634;28;20462;-81
2022/08/21 10:48:36;;;;;;;23.33;15.27;;;25.70;35.40;;;;;;4965984;28;20027;-84
2022/08/21 10:51:27;;;;;;;26.80;14.68;;;25.70;34.40;;;;;;4962161;28;20798;-80
2022/08/21 10:54:12;;;;;;;21.10;14.15;;;25.70;35.20;;;;;;4961830;28;20710;-81
2022/08/21 10:56:41;;;;;;;17.08;12.52;;;25.70;35.00;;;;;;4963927;28;20121;-77
2022/08/21 10:59:36;;;;;;;21.75;11.70;;;25.70;36.30;;;;;;4964522;28;20031;-78
2022/08/21 11:02:14;;;;;;;19.90;11.68;;;25.70;35.40;;;;;;4945690;28;20501;-80
2022/08/21 11:05:18;;;;;;;16.38;11.13;;;25.70;34.90;;;;;;4964574;28;20031;-80
2022/08/21 11:07:56;;;;;;;18.13;12.27;;;25.70;35.50;;;;;;4932459;28;20086;-81
2022/08/21 11:10:30;;;;;;;20.48;12.60;;;25.80;35.00;;;;;;4965064;28;20035;-80
2022/08/21 11:13:06;;;;;;;20.90;13.07;;;25.80;35.60;;;;;;4946681;28;20584;-79
2022/08/21 11:15:52;;;;;;;19.17;12.40;;;25.80;35.30;;;;;;4963691;28;20066;-79
2022/08/21 11:18:18;;;;;;;21.38;11.38;;;25.80;34.60;;;;;;4964386;28;20073;-80
2022/08/21 11:21:19;;;;;;;19.17;10.38;;;25.80;34.40;;;;;;4965598;28;20402;-83
2022/08/21 11:23:54;;;;;;;18.67;10.82;;;25.80;33.50;;;;;;4907961;29;20051;-83
2022/08/21 11:26:52;;;;;;;19.23;10.77;;;25.80;33.60;;;;;;4907637;29;20036;-86
2022/08/21 11:29:23;;;;;;;22.55;11.13;;;25.70;33.20;;;;;;4895932;29;20501;-89
2022/08/21 11:32:00;;;;;;;21.73;12.27;;;25.70;33.30;;;;;;4901052;29;20075;-92
2022/08/21 11:34:50;;;;;;;24.77;13.57;;;25.70;33.50;;;;;;4887983;29;20061;-88
2022/08/21 11:37:32;;;;;;;28.20;13.52;;;25.60;33.50;;;;;;4903255;29;20044;-90
2022/08/21 11:40:12;;;;;;;19.70;12.95;;;25.70;34.10;;;;;;4882547;29;20076;-90
2022/08/21 11:42:47;;;;;;;22.90;11.85;;;25.70;33.60;;;;;;4893758;29;20512;-92
2022/08/21 11:45:28;;;;;;;18.30;12.57;;;25.70;33.30;;;;;;4897159;29;20107;-93
2022/08/21 11:48:32;;;;;;;23.65;13.93;;;25.70;33.80;;;;;;4905932;29;20148;-91
2022/08/21 11:51:00;;;;;;;24.02;13.00;;;25.60;33.60;;;;;;4887404;29;20064;-89
2022/08/21 11:53:35;;;;;;;25.80;14.50;;;25.60;34.00;;;;;;4891101;29;20040;-90
2022/08/21 11:56:16;;;;;;;22.02;13.68;;;25.60;33.70;;;;;;4899436;29;20068;-94
2022/08/21 11:58:48;;;;;;;20.35;13.25;;;25.60;33.90;;;;;;4900473;29;20036;-92
2022/08/21 12:01:20;;;;;;;18.23;11.95;;;25.60;33.50;;;;;;4954565;28;20042;-90
2022/08/21 12:04:08;;;;;;;20.30;10.95;;;25.50;33.40;;;;;;4955029;28;20042;-91
2022/08/21 12:06:38;;;;;;;13.32;9.38;;;25.50;33.50;;;;;;4936471;28;20033;-93
2022/08/21 12:09:26;;;;;;;18.55;9.73;;;25.50;33.30;;;;;;4948743;28;20027;-90
2022/08/21 12:12:05;;;;;;;17.63;9.82;;;25.40;32.90;;;;;;4965472;28;20042;-91
2022/08/21 12:14:47;;;;;;;13.07;8.48;;;25.40;33.50;;;;;;4939942;28;20035;-91
2022/08/21 12:17:36;;;;;;;16.75;8.90;;;25.40;33.50;;;;;;4952690;28;20035;-90
2022/08/21 12:20:19;;;;;;;17.75;9.73;;;25.30;33.50;;;;;;4937421;28;20035;-91
2022/08/21 12:23:11;;;;;;;16.40;9.45;;;25.30;33.80;;;;;;4968750;28;20043;-90
2022/08/21 12:25:40;;;;;;;17.88;9.82;;;25.30;33.90;;;;;;4969344;28;20045;-93
2022/08/21 12:28:13;;;;;;;17.85;9.77;;;25.20;34.10;;;;;;4950082;28;20047;-93
2022/08/21 12:30:45;;;;;;;13.93;9.60;;;25.30;34.40;;;;;;4954346;28;20030;-90
2022/08/21 12:33:31;;;;;;;14.98;9.77;;;25.20;34.40;;;;;;4951692;28;20122;-91
2022/08/21 12:36:21;;;;;;;18.23;11.05;;;25.20;34.60;;;;;;4955045;28;20042;-90
2022/08/21 12:39:00;;;;;;;18.10;11.35;;;25.20;34.60;;;;;;4934973;28;20043;-92
2022/08/21 12:42:00;;;;;;;20.40;11.90;;;25.20;34.70;;;;;;4957460;28;20067;-90
2022/08/21 12:44:59;;;;;;;18.10;11.88;;;25.30;34.90;;;;;;4933694;28;20067;-93
2022/08/21 12:47:52;;;;;;;18.85;10.65;;;25.20;35.00;;;;;;4934922;28;20043;-90
2022/08/21 12:50:35;;;;;;;19.92;11.57;;;25.30;35.80;;;;;;4921799;28;20050;-88
2022/08/21 12:53:23;;;;;;;15.45;11.23;;;25.30;35.60;;;;;;4963773;28;20141;-93
2022/08/21 12:55:52;;;;;;;21.70;11.45;;;25.30;35.70;;;;;;4961513;28;20066;-92